Time;durP1;ratioP1;P1;durP2;ratioP2;P2;SDS_P1;SDS_P2;PMS_P1;PMS_P2;Temp;Humidity;BMP_temperature;BMP_pressure;BME280_temperature;BME280_humidity;BME280_pressure;Samples;Min_cycle;Max_cycle;Signal;HPM_P1;HPM_P2
2022/04/21 05:23:46;;;;;;;;;;;;;;;10.65;55.08;95945.22;4254011;27;10335;-68
2022/04/21 05:25:48;;;;;;;;;;;;;;;10.67;54.32;95949.25;4245600;27;5734;-68
2022/04/21 05:27:49;;;;;;;;;;;;;;;10.70;54.17;95954.09;4229802;28;5736;-68
2022/04/21 05:32:15;;;;;;;;;;;;;;;10.68;54.32;95950.06;4227845;28;5747;-68
2022/04/21 05:34:17;;;;;;;;;;;;;;;10.65;54.54;95953.13;4231867;28;5876;-68
2022/04/21 05:36:19;;;;;;;;;;;;;;;10.40;55.36;95948.59;4230361;28;5680;-68
2022/04/21 05:38:22;;;;;;;;;;;;;;;10.48;54.82;95948.34;4231639;28;5672;-69
2022/04/21 05:40:24;;;;;;;;;;;;;;;10.62;54.03;95948.25;4245225;27;5799;-68
2022/04/21 05:42:27;;;;;;;;;;;;;;;10.68;53.85;95944.78;4233016;27;5685;-68
2022/04/21 05:44:29;;;;;;;;;;;;;;;10.71;53.43;95953.06;4227630;28;5736;-68
2022/04/21 05:46:31;;;;;;;;;;;;;;;10.71;53.18;95955.72;4238120;27;5821;-69
2022/04/21 05:48:34;;;;;;;;;;;;;;;10.69;53.76;95954.31;4229781;28;5709;-69
2022/04/21 05:50:36;;;;;;;;;;;;;;;10.61;53.45;95957.22;4231406;28;5665;-67
2022/04/21 05:52:38;;;;;;;;;;;;;;;10.58;53.62;95957.66;4231911;28;5768;-63
2022/04/21 05:54:41;;;;;;;;;;;;;;;10.61;53.65;95949.28;4229602;28;5851;-62
2022/04/21 05:56:43;;;;;;;;;;;;;;;10.63;53.23;95958.63;4231429;28;5672;-63
2022/04/21 05:58:46;;;;;;;;;;;;;;;10.53;52.88;95947.69;4229595;28;5684;-63
2022/04/21 06:00:47;;;;;;;;;;;;;;;10.60;53.19;95950.31;4231279;28;5766;-63
2022/04/21 06:02:55;;;;;;;;;;;;;;;10.73;52.52;95952.84;4231549;28;5676;-63
2022/04/21 06:04:59;;;;;;;;;;;;;;;10.75;53.01;95945.53;4230166;28;5875;-63
2022/04/21 06:07:00;;;;;;;;;;;;;;;10.89;52.75;95947.06;4230132;28;5720;-63
2022/04/21 06:09:02;;;;;;;;;;;;;;;10.94;52.19;95955.13;4231263;28;6457;-63
2022/04/21 06:11:04;;;;;;;;;;;;;;;10.94;51.83;95949.84;4231725;28;6369;-63
2022/04/21 06:13:06;;;;;;;;;;;;;;;11.04;52.16;95944.09;4231020;28;5819;-63
2022/04/21 06:15:08;;;;;;;;;;;;;;;11.16;51.67;95946.81;4231478;28;5866;-63
2022/04/21 06:17:10;;;;;;;;;;;;;;;11.37;51.45;95947.25;4230285;28;5736;-63
2022/04/21 06:19:12;;;;;;;;;;;;;;;11.37;51.00;95949.88;4231007;28;5780;-63
2022/04/21 06:21:14;;;;;;;;;;;;;;;11.33;51.38;95951.38;4231152;28;5745;-63
2022/04/21 06:23:16;;;;;;;;;;;;;;;11.32;51.44;95951.56;4226954;28;5656;-63
2022/04/21 06:25:17;;;;;;;;;;;;;;;11.52;50.87;95952.19;4220086;28;5788;-63
2022/04/21 06:27:19;;;;;;;;;;;;;;;11.60;50.36;95943.16;4219554;28;5696;-63
2022/04/21 06:29:20;;;;;;;;;;;;;;;11.77;50.33;95946.00;4219592;28;5679;-63
2022/04/21 06:31:22;;;;;;;;;;;;;;;11.91;50.28;95950.19;4218979;28;6351;-63
2022/04/21 06:33:24;;;;;;;;;;;;;;;12.02;50.02;95952.06;4219795;28;5692;-63
2022/04/21 06:35:26;;;;;;;;;;;;;;;12.12;49.84;95946.25;4219932;28;5681;-64
2022/04/21 06:37:28;;;;;;;;;;;;;;;12.07;50.29;95948.75;4219942;28;5786;-63
2022/04/21 06:39:29;;;;;;;;;;;;;;;11.82;53.98;95954.13;4220043;28;5735;-63
2022/04/21 06:41:33;;;;;;;;;;;;;;;11.81;53.10;95948.03;4208733;28;5714;-64
2022/04/21 06:48:14;;;;;;;;;;;;;;;11.80;53.78;95943.78;4203211;28;5081;-64
2022/04/21 06:50:16;;;;;;;;;;;;;;;11.45;55.91;95956.75;4206170;28;5709;-63
2022/04/21 06:52:18;;;;;;;;;;;;;;;11.45;54.86;95961.22;4219643;28;5767;-63
2022/04/21 06:54:19;;;;;;;;;;;;;;;11.61;54.71;95950.88;4213443;28;5740;-63
2022/04/21 06:56:21;;;;;;;;;;;;;;;11.66;54.38;95953.69;4218445;28;6370;-63
2022/04/21 06:58:28;;;;;;;;;;;;;;;11.74;54.03;95949.09;4231684;28;5878;-63
2022/04/21 07:00:29;;;;;;;;;;;;;;;11.67;53.87;95949.19;4217665;28;5823;-63
2022/04/21 07:02:32;;;;;;;;;;;;;;;11.65;54.05;95952.03;4217586;28;5755;-63
2022/04/21 07:04:40;;;;;;;;;;;;;;;11.73;53.36;95936.91;4219191;28;5739;-63
2022/04/21 12:08:14;;;;;;;;;;;;;;;14.70;45.93;95646.47;4261913;27;5635;-63
2022/04/21 12:10:16;;;;;;;;;;;;;;;14.62;46.63;95641.59;4264865;27;5806;-63
2022/04/21 12:12:21;;;;;;;;;;;;;;;14.66;47.07;95638.19;4263735;27;5860;-63
2022/04/21 12:14:24;;;;;;;;;;;;;;;14.60;46.40;95633.84;4255227;27;6324;-63
2022/04/21 12:16:36;;;;;;;;;;;;;;;14.39;46.96;95634.59;4264532;27;5589;-63
2022/04/21 12:19:10;;;;;;;;;;;;;;;14.63;46.81;95635.22;4268055;27;6448;-64
2022/04/21 12:21:13;;;;;;;;;;;;;;;14.73;46.49;95627.38;4264099;27;5597;-64
2022/04/21 12:23:23;;;;;;;;;;;;;;;14.80;46.33;95623.47;4264152;27;5578;-64
2022/04/21 12:25:32;;;;;;;;;;;;;;;14.80;46.47;95622.66;4263938;27;5602;-64
2022/04/21 12:27:38;;;;;;;;;;;;;;;14.93;46.53;95622.28;4264876;27;5644;-64
2022/04/21 12:29:51;;;;;;;;;;;;;;;14.96;45.43;95626.31;4265163;27;5743;-64
2022/04/21 12:31:56;;;;;;;;;;;;;;;14.99;45.67;95620.50;4265372;27;5624;-63
2022/04/21 12:33:58;;;;;;;;;;;;;;;14.93;45.75;95622.28;4265847;27;5624;-63
2022/04/21 12:36:06;;;;;;;;;;;;;;;14.89;45.83;95625.69;4262661;27;5724;-64
2022/04/21 12:40:29;;;;;;;;;;;;;;;15.02;45.63;95626.13;4261632;27;5251;-63
2022/04/21 12:42:31;;;;;;;;;;;;;;;15.11;45.63;95619.28;4264374;27;5684;-63
2022/04/21 12:44:33;;;;;;;;;;;;;;;15.15;46.02;95612.41;4264460;27;5669;-63
2022/04/21 12:46:36;;;;;;;;;;;;;;;15.07;45.58;95618.19;4264499;27;6301;-64
2022/04/21 12:48:46;;;;;;;;;;;;;;;15.24;45.97;95617.28;4264543;27;5771;-63
2022/04/21 12:50:48;;;;;;;;;;;;;;;15.32;45.56;95620.31;4259099;27;5606;-64
2022/04/21 12:52:55;;;;;;;;;;;;;;;15.36;45.32;95613.44;4263215;27;5658;-63
2022/04/21 12:55:07;;;;;;;;;;;;;;;15.38;45.57;95608.66;4260933;27;5722;-63
2022/04/21 12:57:09;;;;;;;;;;;;;;;15.42;45.53;95616.97;4263516;27;5798;-63
2022/04/21 12:59:11;;;;;;;;;;;;;;;15.47;45.42;95610.84;4264600;27;5881;-63
2022/04/21 13:01:13;;;;;;;;;;;;;;;15.53;45.68;95617.84;4265347;27;7700;-63
2022/04/21 13:03:14;;;;;;;;;;;;;;;15.35;45.75;95613.69;4265451;27;5632;-63
2022/04/21 13:05:17;;;;;;;;;;;;;;;15.54;45.57;95606.94;4260566;27;5730;-64
2022/04/21 13:07:18;;;;;;;;;;;;;;;15.60;45.63;95605.16;4252892;27;5648;-64
2022/04/21 13:09:21;;;;;;;;;;;;;;;15.63;44.71;95600.13;4253244;27;5636;-63
2022/04/21 13:11:23;;;;;;;;;;;;;;;15.77;45.65;95591.72;4252500;27;5625;-63
2022/04/21 13:13:29;;;;;;;;;;;;;;;15.84;45.05;95584.28;4234517;27;5609;-64
2022/04/21 13:15:31;;;;;;;;;;;;;;;15.96;45.71;95587.56;4253487;27;5711;-63
2022/04/21 13:17:33;;;;;;;;;;;;;;;15.93;45.82;95583.56;4247920;27;5737;-63
2022/04/21 13:19:37;;;;;;;;;;;;;;;15.95;45.14;95581.44;4253477;27;5628;-63
2022/04/21 13:21:55;;;;;;;;;;;;;;;16.04;44.22;95581.78;4251246;27;5741;-63
2022/04/21 13:23:57;;;;;;;;;;;;;;;15.95;43.02;95572.63;4251190;27;5661;-64
2022/04/21 13:26:00;;;;;;;;;;;;;;;16.07;44.37;95572.44;4255949;27;5223;-64
2022/04/21 13:28:24;;;;;;;;;;;;;;;16.26;43.91;95571.78;4240882;27;5665;-64
2022/04/21 13:30:28;;;;;;;;;;;;;;;16.26;43.69;95566.44;4247049;27;5636;-64
2022/04/21 13:34:50;;;;;;;;;;;;;;;16.51;43.89;95568.44;4253413;27;5703;-64
2022/04/21 13:36:51;;;;;;;;;;;;;;;16.60;42.95;95566.88;4253713;27;5696;-64
2022/04/21 13:38:53;;;;;;;;;;;;;;;16.53;42.31;95568.97;4252406;27;5582;-64
2022/04/21 13:40:55;;;;;;;;;;;;;;;16.58;42.63;95569.00;4253004;27;5645;-64
2022/04/21 13:42:56;;;;;;;;;;;;;;;16.23;43.20;95568.84;4253330;27;5625;-64
2022/04/21 13:45:15;;;;;;;;;;;;;;;15.97;45.98;95552.69;4253429;27;5651;-64
2022/04/21 13:47:35;;;;;;;;;;;;;;;15.90;47.05;95551.28;4253524;27;5635;-64
2022/04/21 13:49:38;;;;;;;;;;;;;;;15.93;45.17;95545.44;4251971;27;5640;-64
2022/04/21 13:51:40;;;;;;;;;;;;;;;16.19;45.50;95544.53;4249938;27;5732;-64
2022/04/21 13:53:42;;;;;;;;;;;;;;;16.33;45.54;95544.09;4247988;27;5861;-64
2022/04/21 13:55:44;;;;;;;;;;;;;;;16.43;44.77;95536.13;4245181;27;5765;-64
2022/04/21 13:57:45;;;;;;;;;;;;;;;16.50;44.07;95539.34;4242714;27;5711;-64
2022/04/21 13:59:47;;;;;;;;;;;;;;;16.51;44.38;95540.94;4245878;27;5821;-64
2022/04/21 14:01:49;;;;;;;;;;;;;;;16.56;44.02;95530.31;4244427;27;5769;-65
2022/04/21 14:03:51;;;;;;;;;;;;;;;16.54;43.51;95535.91;4242912;27;6503;-63
2022/04/21 14:05:53;;;;;;;;;;;;;;;16.54;42.75;95535.13;4249820;27;6452;-64
2022/04/21 14:07:54;;;;;;;;;;;;;;;16.59;43.41;95541.25;4249108;27;5715;-64
2022/04/21 14:09:56;;;;;;;;;;;;;;;16.58;43.60;95536.19;4249565;27;5739;-64
2022/04/21 14:11:58;;;;;;;;;;;;;;;16.67;43.84;95537.28;4248793;27;5779;-64
2022/04/21 14:13:59;;;;;;;;;;;;;;;16.74;43.81;95523.72;4249352;27;5731;-63
2022/04/21 14:16:01;;;;;;;;;;;;;;;16.68;43.69;95517.56;4249326;27;5864;-63
2022/04/21 14:18:23;;;;;;;;;;;;;;;16.45;44.11;95515.34;4244753;27;5730;-64
2022/04/21 14:20:25;;;;;;;;;;;;;;;16.58;44.25;95504.16;4249761;27;5735;-64
2022/04/21 14:22:29;;;;;;;;;;;;;;;16.59;43.07;95501.25;4246478;27;5723;-65
2022/04/21 14:24:32;;;;;;;;;;;;;;;16.52;43.26;95502.53;4244706;27;5743;-65
2022/04/21 14:26:35;;;;;;;;;;;;;;;16.47;43.91;95502.53;4248906;27;5731;-64
2022/04/21 14:28:41;;;;;;;;;;;;;;;16.52;44.37;95494.53;4248934;27;6413;-64
2022/04/21 14:30:43;;;;;;;;;;;;;;;16.64;43.83;95481.75;4246954;27;5731;-63
2022/04/21 14:32:45;;;;;;;;;;;;;;;16.70;43.15;95488.75;4249328;27;5750;-63
2022/04/21 14:34:46;;;;;;;;;;;;;;;16.59;42.59;95489.78;4249292;27;5713;-64
2022/04/21 14:36:49;;;;;;;;;;;;;;;16.58;42.54;95488.16;4247944;27;5847;-64
2022/04/21 14:45:53;;;;;;;;;;;;;;;16.59;42.60;95484.44;4248420;27;6030;-64
2022/04/21 14:47:55;;;;;;;;;;;;;;;16.52;42.56;95474.00;4248830;27;5735;-64
2022/04/21 14:49:57;;;;;;;;;;;;;;;16.50;42.47;95486.00;4249294;27;5625;-64
2022/04/21 14:52:09;;;;;;;;;;;;;;;16.44;41.95;95476.38;4249539;27;5719;-64
2022/04/21 14:54:12;;;;;;;;;;;;;;;16.40;42.22;95485.97;4247288;27;5622;-64
2022/04/21 14:56:15;;;;;;;;;;;;;;;16.47;41.03;95486.53;4248241;27;5629;-64
2022/04/21 14:58:20;;;;;;;;;;;;;;;16.51;41.65;95490.25;4247638;27;5606;-63
2022/04/21 15:00:22;;;;;;;;;;;;;;;16.26;42.57;95488.31;4249291;27;5782;-63
2022/04/21 15:02:24;;;;;;;;;;;;;;;16.15;43.19;95484.78;4249350;27;6757;-64
2022/04/21 15:04:28;;;;;;;;;;;;;;;16.05;42.64;95479.41;4248143;27;5715;-63
2022/04/21 15:06:31;;;;;;;;;;;;;;;16.19;43.25;95475.19;4248680;27;5727;-63
2022/04/21 15:08:33;;;;;;;;;;;;;;;16.40;42.04;95472.63;4251483;27;5142;-64
2022/04/21 15:10:39;;;;;;;;;;;;;;;16.51;41.51;95476.94;4247573;27;5728;-64
2022/04/21 15:12:41;;;;;;;;;;;;;;;16.54;41.32;95477.22;4232011;28;5721;-64
2022/04/21 15:14:43;;;;;;;;;;;;;;;16.56;41.06;95477.75;4230205;27;5778;-64
2022/04/21 15:16:44;;;;;;;;;;;;;;;16.59;40.37;95477.22;4265897;27;5742;-64
2022/04/21 15:18:46;;;;;;;;;;;;;;;16.66;40.87;95474.31;4264568;27;5718;-64
2022/04/21 15:20:48;;;;;;;;;;;;;;;16.70;40.71;95472.75;4265911;27;5698;-64
2022/04/21 15:22:49;;;;;;;;;;;;;;;16.74;40.54;95481.03;4265980;27;5706;-64
2022/04/21 15:24:52;;;;;;;;;;;;;;;16.73;40.02;95477.56;4263907;27;5685;-63
2022/04/21 15:26:54;;;;;;;;;;;;;;;16.78;40.47;95477.59;4265353;27;5706;-63
2022/04/21 15:28:56;;;;;;;;;;;;;;;16.74;40.57;95478.34;4248437;27;5686;-64
2022/04/21 15:30:58;;;;;;;;;;;;;;;16.77;40.09;95475.97;4248674;27;5681;-63
2022/04/21 15:33:00;;;;;;;;;;;;;;;16.75;39.23;95472.75;4248525;27;5726;-63
2022/04/21 15:35:01;;;;;;;;;;;;;;;16.68;38.23;95466.88;4248333;27;5694;-64
2022/04/21 15:37:06;;;;;;;;;;;;;;;16.78;39.23;95464.25;4247214;27;5615;-65
2022/04/21 15:39:07;;;;;;;;;;;;;;;16.85;39.19;95467.44;4248552;27;5674;-64
2022/04/21 15:41:09;;;;;;;;;;;;;;;16.90;39.10;95465.84;4248346;27;5686;-65
2022/04/21 15:43:11;;;;;;;;;;;;;;;16.98;38.15;95465.31;4247935;27;5739;-64
2022/04/21 15:45:13;;;;;;;;;;;;;;;16.92;37.51;95466.38;4229726;28;6456;-64
2022/04/21 15:47:14;;;;;;;;;;;;;;;16.90;38.31;95463.19;4248508;27;5731;-64
2022/04/21 15:49:16;;;;;;;;;;;;;;;16.92;38.37;95459.19;4248474;27;5857;-64
2022/04/21 15:51:18;;;;;;;;;;;;;;;16.95;37.98;95457.84;4248766;27;5716;-64
2022/04/21 16:00:05;;;;;;;;;;;;;;;17.30;33.10;95462.41;4239585;27;5749;-64
2022/04/21 16:02:07;;;;;;;;;;;;;;;17.36;34.83;95446.13;4241089;27;5719;-64
2022/04/21 16:04:09;;;;;;;;;;;;;;;17.37;35.27;95455.72;4248047;27;5365;-64
2022/04/21 16:06:10;;;;;;;;;;;;;;;17.41;31.37;95454.09;4237093;27;5713;-64
2022/04/21 16:08:12;;;;;;;;;;;;;;;17.45;30.91;95444.50;4244901;27;6388;-64
2022/04/21 16:10:14;;;;;;;;;;;;;;;17.51;31.35;95452.50;4247271;27;5638;-64
2022/04/21 16:12:17;;;;;;;;;;;;;;;17.49;33.54;95446.63;4244597;27;5678;-64
2022/04/21 16:14:25;;;;;;;;;;;;;;;17.45;34.70;95447.19;4245052;27;5762;-65
2022/04/21 16:16:48;;;;;;;;;;;;;;;17.42;34.25;95447.69;4246859;27;5688;-65
2022/04/21 16:18:50;;;;;;;;;;;;;;;17.46;31.15;95439.97;4263479;27;5698;-65
2022/04/21 16:20:52;;;;;;;;;;;;;;;17.48;29.79;95437.03;4248254;27;5717;-64
2022/04/21 16:22:54;;;;;;;;;;;;;;;17.55;28.62;95442.88;4251115;27;5609;-64
2022/04/21 16:24:56;;;;;;;;;;;;;;;17.55;28.84;95437.53;4245020;27;5777;-64
2022/04/21 16:26:58;;;;;;;;;;;;;;;17.62;28.74;95433.50;4239801;27;5620;-64
2022/04/21 16:28:59;;;;;;;;;;;;;;;17.72;28.69;95438.06;4249959;27;5779;-63
2022/04/21 16:31:02;;;;;;;;;;;;;;;17.72;29.24;95438.06;4251065;27;5632;-64
2022/04/21 16:33:05;;;;;;;;;;;;;;;17.72;29.78;95438.06;4251238;27;5632;-64
2022/04/21 16:35:07;;;;;;;;;;;;;;;17.72;28.57;95432.72;4250991;27;5753;-64
2022/04/21 16:37:09;;;;;;;;;;;;;;;17.78;28.42;95428.16;4251112;27;5711;-64
2022/04/21 16:39:10;;;;;;;;;;;;;;;17.76;28.25;95439.13;4251471;27;5644;-64
2022/04/21 16:41:12;;;;;;;;;;;;;;;17.77;28.10;95429.22;4252304;27;5067;-64
2022/04/21 16:43:14;;;;;;;;;;;;;;;17.81;27.65;95425.75;4253223;27;5594;-65
2022/04/21 16:45:15;;;;;;;;;;;;;;;17.80;27.64;95424.16;4254546;27;5641;-63
2022/04/21 16:47:17;;;;;;;;;;;;;;;17.77;28.61;95424.69;4253288;27;5590;-63
2022/04/21 16:49:19;;;;;;;;;;;;;;;17.81;28.43;95422.28;4254339;27;5714;-63
2022/04/21 16:51:20;;;;;;;;;;;;;;;17.81;27.74;95417.75;4254697;27;5632;-63
2022/04/21 16:53:22;;;;;;;;;;;;;;;17.84;28.56;95419.06;4254454;27;5692;-64
2022/04/21 16:55:24;;;;;;;;;;;;;;;17.82;29.46;95422.00;4252343;27;5582;-65
2022/04/21 16:57:25;;;;;;;;;;;;;;;17.78;30.08;95420.97;4254183;27;5628;-64
2022/04/21 16:59:28;;;;;;;;;;;;;;;17.77;29.67;95419.34;4254120;27;5625;-64
2022/04/21 17:03:50;;;;;;;;;;;;;;;17.73;30.26;95405.72;4254019;27;5641;-64
2022/04/21 17:05:52;;;;;;;;;;;;;;;17.70;30.61;95406.28;4253726;27;5628;-64
2022/04/21 17:07:54;;;;;;;;;;;;;;;17.69;31.17;95412.69;4253773;27;5628;-63
2022/04/21 17:10:00;;;;;;;;;;;;;;;17.68;31.43;95410.25;4252912;27;5579;-63
2022/04/21 17:12:04;;;;;;;;;;;;;;;17.64;31.62;95414.53;4253599;27;5625;-64
2022/04/21 17:14:06;;;;;;;;;;;;;;;17.61;31.95;95409.75;4254046;27;6313;-65
2022/04/21 17:16:08;;;;;;;;;;;;;;;17.60;32.10;95418.81;4254045;27;6475;-64
2022/04/21 17:18:10;;;;;;;;;;;;;;;17.54;32.28;95418.03;4254152;27;5736;-63
2022/04/21 17:20:11;;;;;;;;;;;;;;;17.54;32.61;95407.34;4253833;27;5629;-63
2022/04/21 17:22:13;;;;;;;;;;;;;;;17.52;32.83;95414.03;4253669;27;5680;-64
2022/04/21 17:24:15;;;;;;;;;;;;;;;17.53;33.02;95412.94;4253875;27;5636;-64
2022/04/21 17:26:16;;;;;;;;;;;;;;;17.46;33.51;95414.03;4253406;27;5633;-64
2022/04/21 17:28:23;;;;;;;;;;;;;;;17.39;33.86;95412.72;4253670;27;5743;-64
2022/04/21 17:30:25;;;;;;;;;;;;;;;17.37;34.21;95414.84;4253472;27;5097;-63
2022/04/21 17:32:26;;;;;;;;;;;;;;;17.42;34.03;95422.84;4253625;27;5595;-63
2022/04/21 17:34:28;;;;;;;;;;;;;;;17.41;34.27;95415.91;4252269;27;5498;-64
2022/04/21 17:36:30;;;;;;;;;;;;;;;17.39;34.40;95413.50;4253699;27;5619;-64
2022/04/21 17:38:31;;;;;;;;;;;;;;;17.34;34.45;95402.84;4253427;27;5844;-64
2022/04/21 17:40:33;;;;;;;;;;;;;;;17.38;34.90;95411.13;4252031;27;5693;-64
2022/04/21 17:42:35;;;;;;;;;;;;;;;17.35;35.17;95407.13;4253595;27;5599;-64
2022/04/21 17:44:37;;;;;;;;;;;;;;;17.32;35.78;95406.84;4253470;27;5610;-64
2022/04/21 17:46:39;;;;;;;;;;;;;;;17.12;36.39;95402.34;4252032;27;5598;-64
2022/04/21 17:48:41;;;;;;;;;;;;;;;17.13;36.66;95403.94;4252165;27;5611;-64
2022/04/21 17:50:43;;;;;;;;;;;;;;;17.10;36.79;95407.13;4253349;27;5742;-65
2022/04/21 17:52:45;;;;;;;;;;;;;;;17.07;37.20;95394.31;4253326;27;5765;-65
2022/04/21 17:54:46;;;;;;;;;;;;;;;17.00;37.74;95396.47;4252984;27;5681;-65
2022/04/21 17:56:48;;;;;;;;;;;;;;;16.97;37.67;95400.44;4253036;27;5579;-65
2022/04/21 17:58:50;;;;;;;;;;;;;;;16.89;37.89;95390.31;4252352;27;5601;-65
2022/04/21 18:00:51;;;;;;;;;;;;;;;16.93;38.09;95394.03;4253577;27;5599;-65
2022/04/21 18:02:53;;;;;;;;;;;;;;;16.91;38.17;95390.03;4253248;27;5732;-64
2022/04/21 18:04:55;;;;;;;;;;;;;;;16.79;38.42;95392.97;4252739;27;5587;-64
2022/04/21 18:06:57;;;;;;;;;;;;;;;16.81;38.45;95391.63;4252879;27;5621;-63
2022/04/21 18:08:59;;;;;;;;;;;;;;;16.77;38.53;95395.13;4253185;27;5624;-64
2022/04/21 18:11:01;;;;;;;;;;;;;;;16.69;38.63;95387.63;4244226;27;5103;-64
2022/04/21 18:13:02;;;;;;;;;;;;;;;16.65;38.93;95386.50;4235982;27;5642;-64
2022/04/21 18:15:05;;;;;;;;;;;;;;;16.66;38.84;95394.28;4235934;28;5804;-64
2022/04/21 18:17:07;;;;;;;;;;;;;;;16.70;38.77;95387.38;4234627;28;5614;-64
2022/04/21 18:19:09;;;;;;;;;;;;;;;16.58;38.91;95381.44;4236964;27;5805;-64
2022/04/21 18:21:11;;;;;;;;;;;;;;;16.56;38.98;95379.06;4244482;27;5839;-64
2022/04/21 18:23:13;;;;;;;;;;;;;;;16.47;39.03;95390.50;4242700;27;5708;-64
2022/04/21 18:25:15;;;;;;;;;;;;;;;16.47;38.62;95385.97;4245153;27;5625;-63
2022/04/21 18:27:17;;;;;;;;;;;;;;;16.41;38.66;95381.69;4252153;27;5633;-64
2022/04/21 18:29:18;;;;;;;;;;;;;;;16.37;38.69;95385.94;4244364;27;5853;-66
2022/04/21 18:31:20;;;;;;;;;;;;;;;16.36;38.81;95384.34;4244448;27;5629;-66
2022/04/21 18:33:22;;;;;;;;;;;;;;;16.40;38.62;95384.59;4247925;27;5112;-66
2022/04/21 18:35:24;;;;;;;;;;;;;;;16.28;38.82;95385.66;4251634;27;5740;-66
2022/04/21 18:37:25;;;;;;;;;;;;;;;16.27;38.84;95380.59;4246511;27;5466;-68
2022/04/21 18:39:27;;;;;;;;;;;;;;;16.20;38.79;95375.50;4245214;27;5835;-67
2022/04/21 18:41:29;;;;;;;;;;;;;;;16.17;38.98;95385.88;4261664;27;5682;-70
2022/04/21 18:43:31;;;;;;;;;;;;;;;16.10;38.64;95380.00;4259311;27;5636;-71
2022/04/21 18:45:33;;;;;;;;;;;;;;;16.10;38.90;95374.69;4255463;27;5686;-70
2022/04/21 18:47:35;;;;;;;;;;;;;;;16.07;38.87;95381.31;4244819;27;5633;-71
2022/04/21 18:49:37;;;;;;;;;;;;;;;16.00;39.01;95380.78;4239107;27;5634;-67
2022/04/21 18:51:41;;;;;;;;;;;;;;;15.98;39.11;95377.56;4235201;27;6393;-72
2022/04/21 18:53:43;;;;;;;;;;;;;;;15.94;38.93;95371.16;4244689;27;6567;-72
2022/04/21 18:55:44;;;;;;;;;;;;;;;15.99;38.72;95377.31;4243393;27;5867;-72
2022/04/21 19:00:07;;;;;;;;;;;;;;;15.86;38.93;95371.66;4263369;27;5646;-72
2022/04/21 19:02:10;;;;;;;;;;;;;;;15.81;38.99;95368.97;4252053;27;5716;-69
2022/04/21 19:04:12;;;;;;;;;;;;;;;15.83;38.83;95370.31;4249737;27;5716;-66
2022/04/21 19:06:14;;;;;;;;;;;;;;;15.73;38.83;95372.91;4245090;27;5649;-67
2022/04/21 19:08:15;;;;;;;;;;;;;;;15.65;38.88;95366.25;4255175;27;5749;-67
2022/04/21 19:10:17;;;;;;;;;;;;;;;15.69;38.94;95364.66;4264751;27;5855;-66
2022/04/21 19:12:19;;;;;;;;;;;;;;;15.77;38.83;95363.38;4255944;27;5723;-66
2022/04/21 19:14:21;;;;;;;;;;;;;;;15.59;39.17;95366.44;4251838;27;5649;-67
2022/04/21 19:16:23;;;;;;;;;;;;;;;15.66;39.17;95365.19;4262108;27;5747;-66
2022/04/21 19:18:27;;;;;;;;;;;;;;;15.66;39.25;95365.19;4268059;27;5620;-67
2022/04/21 19:20:28;;;;;;;;;;;;;;;15.62;39.26;95369.41;4267351;27;5600;-68
2022/04/21 19:22:30;;;;;;;;;;;;;;;15.52;39.19;95364.03;4269056;27;5716;-67
2022/04/21 19:24:32;;;;;;;;;;;;;;;15.54;39.10;95366.44;4258034;27;5852;-70
2022/04/21 19:26:39;;;;;;;;;;;;;;;15.58;39.49;95368.31;4239716;27;5719;-69
2022/04/21 19:28:41;;;;;;;;;;;;;;;15.43;39.61;95370.91;4251442;27;5786;-68
2022/04/21 19:30:48;;;;;;;;;;;;;;;15.39;39.48;95369.78;4251932;27;5661;-69
2022/04/21 19:32:53;;;;;;;;;;;;;;;15.35;39.51;95364.19;4252851;27;5871;-67
